sensor_id;sensor_type;location;lat;lon;timestamp;P1;durP1;ratioP1;P2;durP2;ratioP2
22713;SDS011;11524;50.846;4.326;2022-08-14T00:00:34;5.65;;;3.30;;
22713;SDS011;11524;50.846;4.326;2022-08-14T00:03:00;6.35;;;3.00;;
22713;SDS011;11524;50.846;4.326;2022-08-14T00:05:26;3.50;;;2.70;;
22713;SDS011;11524;50.846;4.326;2022-08-14T00:07:51;3.22;;;2.60;;
22713;SDS011;11524;50.846;4.326;2022-08-14T00:10:18;4.97;;;2.78;;
22713;SDS011;11524;50.846;4.326;2022-08-14T00:12:46;3.10;;;2.80;;
22713;SDS011;11524;50.846;4.326;2022-08-14T00:15:16;2.80;;;2.58;;
22713;SDS011;11524;50.846;4.326;2022-08-14T00:17:48;3.80;;;2.67;;
22713;SDS011;11524;50.846;4.326;2022-08-14T00:20:15;4.32;;;3.20;;
22713;SDS011;11524;50.846;4.326;2022-08-14T00:22:42;4.43;;;3.05;;
22713;SDS011;11524;50.846;4.326;2022-08-14T00:25:07;3.50;;;2.85;;
22713;SDS011;11524;50.846;4.326;2022-08-14T00:27:34;4.13;;;3.30;;
22713;SDS011;11524;50.846;4.326;2022-08-14T00:29:59;4.10;;;3.33;;
22713;SDS011;11524;50.846;4.326;2022-08-14T00:32:25;8.38;;;3.20;;
22713;SDS011;11524;50.846;4.326;2022-08-14T00:34:51;4.75;;;3.00;;
22713;SDS011;11524;50.846;4.326;2022-08-14T00:37:16;5.43;;;3.28;;
22713;SDS011;11524;50.846;4.326;2022-08-14T00:39:42;4.28;;;3.08;;
22713;SDS011;11524;50.846;4.326;2022-08-14T00:42:08;4.80;;;2.88;;
22713;SDS011;11524;50.846;4.326;2022-08-14T00:44:33;2.88;;;2.63;;
22713;SDS011;11524;50.846;4.326;2022-08-14T00:47:00;3.30;;;3.00;;
22713;SDS011;11524;50.846;4.326;2022-08-14T00:49:27;3.67;;;3.13;;
22713;SDS011;11524;50.846;4.326;2022-08-14T00:51:53;3.35;;;2.72;;
22713;SDS011;11524;50.846;4.326;2022-08-14T00:54:19;3.70;;;2.70;;
22713;SDS011;11524;50.846;4.326;2022-08-14T00:56:45;3.20;;;2.80;;
22713;SDS011;11524;50.846;4.326;2022-08-14T00:59:10;4.03;;;2.80;;
22713;SDS011;11524;50.846;4.326;2022-08-14T01:01:36;3.78;;;2.75;;
22713;SDS011;11524;50.846;4.326;2022-08-14T01:04:03;3.58;;;2.95;;
22713;SDS011;11524;50.846;4.326;2022-08-14T01:06:29;3.38;;;2.72;;
22713;SDS011;11524;50.846;4.326;2022-08-14T01:08:57;4.80;;;2.45;;
22713;SDS011;11524;50.846;4.326;2022-08-14T01:11:24;3.17;;;2.80;;
22713;SDS011;11524;50.846;4.326;2022-08-14T01:13:50;4.20;;;3.10;;
22713;SDS011;11524;50.846;4.326;2022-08-14T01:16:16;4.10;;;2.67;;
22713;SDS011;11524;50.846;4.326;2022-08-14T01:18:44;2.97;;;2.78;;
22713;SDS011;11524;50.846;4.326;2022-08-14T01:21:39;4.60;;;2.80;;
22713;SDS011;11524;50.846;4.326;2022-08-14T01:24:05;3.67;;;2.92;;
22713;SDS011;11524;50.846;4.326;2022-08-14T01:26:32;4.40;;;2.90;;
22713;SDS011;11524;50.846;4.326;2022-08-14T01:28:59;3.28;;;2.90;;
22713;SDS011;11524;50.846;4.326;2022-08-14T01:31:27;4.22;;;2.92;;
22713;SDS011;11524;50.846;4.326;2022-08-14T01:33:56;3.33;;;2.70;;
22713;SDS011;11524;50.846;4.326;2022-08-14T01:36:27;3.40;;;2.65;;
22713;SDS011;11524;50.846;4.326;2022-08-14T01:39:00;2.72;;;2.53;;
22713;SDS011;11524;50.846;4.326;2022-08-14T01:41:32;3.33;;;2.80;;
22713;SDS011;11524;50.846;4.326;2022-08-14T01:44:02;4.40;;;2.80;;
22713;SDS011;11524;50.846;4.326;2022-08-14T01:46:31;3.67;;;2.90;;
22713;SDS011;11524;50.846;4.326;2022-08-14T01:49:02;3.30;;;2.78;;
22713;SDS011;11524;50.846;4.326;2022-08-14T01:51:31;3.22;;;2.88;;
22713;SDS011;11524;50.846;4.326;2022-08-14T01:53:58;4.75;;;3.03;;
22713;SDS011;11524;50.846;4.326;2022-08-14T01:56:27;4.07;;;2.85;;
22713;SDS011;11524;50.846;4.326;2022-08-14T01:59:02;3.45;;;2.90;;
22713;SDS011;11524;50.846;4.326;2022-08-14T02:01:52;3.88;;;2.70;;
22713;SDS011;11524;50.846;4.326;2022-08-14T02:04:20;3.00;;;2.67;;
22713;SDS011;11524;50.846;4.326;2022-08-14T02:06:48;4.57;;;2.63;;
22713;SDS011;11524;50.846;4.326;2022-08-14T02:09:15;3.55;;;2.95;;
22713;SDS011;11524;50.846;4.326;2022-08-14T02:11:41;3.80;;;2.70;;
22713;SDS011;11524;50.846;4.326;2022-08-14T02:14:08;5.20;;;3.35;;
22713;SDS011;11524;50.846;4.326;2022-08-14T02:16:36;6.82;;;3.00;;
22713;SDS011;11524;50.846;4.326;2022-08-14T02:19:04;4.78;;;3.10;;
22713;SDS011;11524;50.846;4.326;2022-08-14T02:21:33;3.95;;;3.50;;
22713;SDS011;11524;50.846;4.326;2022-08-14T02:24:00;5.53;;;3.50;;
22713;SDS011;11524;50.846;4.326;2022-08-14T02:26:32;3.97;;;3.67;;
22713;SDS011;11524;50.846;4.326;2022-08-14T02:29:05;6.88;;;3.90;;
22713;SDS011;11524;50.846;4.326;2022-08-14T02:31:34;6.03;;;4.30;;
22713;SDS011;11524;50.846;4.326;2022-08-14T02:34:06;6.15;;;4.95;;
22713;SDS011;11524;50.846;4.326;2022-08-14T02:39:07;5.18;;;3.97;;
22713;SDS011;11524;50.846;4.326;2022-08-14T02:41:35;6.88;;;4.60;;
22713;SDS011;11524;50.846;4.326;2022-08-14T02:44:02;7.40;;;4.65;;
22713;SDS011;11524;50.846;4.326;2022-08-14T02:46:29;6.60;;;4.43;;
22713;SDS011;11524;50.846;4.326;2022-08-14T02:48:56;7.78;;;4.57;;
22713;SDS011;11524;50.846;4.326;2022-08-14T02:51:22;5.80;;;4.40;;
22713;SDS011;11524;50.846;4.326;2022-08-14T02:53:48;6.78;;;3.90;;
22713;SDS011;11524;50.846;4.326;2022-08-14T02:56:19;6.35;;;4.68;;
22713;SDS011;11524;50.846;4.326;2022-08-14T02:58:46;7.05;;;4.07;;
22713;SDS011;11524;50.846;4.326;2022-08-14T03:01:17;7.43;;;4.38;;
22713;SDS011;11524;50.846;4.326;2022-08-14T03:03:45;5.03;;;4.03;;
22713;SDS011;11524;50.846;4.326;2022-08-14T03:06:15;5.22;;;4.20;;
22713;SDS011;11524;50.846;4.326;2022-08-14T03:08:43;6.13;;;4.10;;
22713;SDS011;11524;50.846;4.326;2022-08-14T03:11:10;5.38;;;3.88;;
22713;SDS011;11524;50.846;4.326;2022-08-14T03:13:38;5.75;;;4.03;;
22713;SDS011;11524;50.846;4.326;2022-08-14T03:16:06;6.60;;;3.85;;
22713;SDS011;11524;50.846;4.326;2022-08-14T03:18:33;5.40;;;4.13;;
22713;SDS011;11524;50.846;4.326;2022-08-14T03:21:03;8.82;;;5.03;;
22713;SDS011;11524;50.846;4.326;2022-08-14T03:23:31;8.40;;;4.63;;
22713;SDS011;11524;50.846;4.326;2022-08-14T03:26:01;8.27;;;4.50;;
22713;SDS011;11524;50.846;4.326;2022-08-14T03:28:28;7.65;;;4.93;;
22713;SDS011;11524;50.846;4.326;2022-08-14T03:30:55;6.20;;;4.70;;
22713;SDS011;11524;50.846;4.326;2022-08-14T03:33:21;6.28;;;4.35;;
22713;SDS011;11524;50.846;4.326;2022-08-14T03:35:48;7.43;;;4.50;;
22713;SDS011;11524;50.846;4.326;2022-08-14T03:38:14;7.20;;;5.15;;
22713;SDS011;11524;50.846;4.326;2022-08-14T03:40:42;7.32;;;4.80;;
22713;SDS011;11524;50.846;4.326;2022-08-14T03:43:08;8.50;;;4.57;;
22713;SDS011;11524;50.846;4.326;2022-08-14T03:45:35;8.25;;;4.47;;
22713;SDS011;11524;50.846;4.326;2022-08-14T03:48:03;6.53;;;4.60;;
22713;SDS011;11524;50.846;4.326;2022-08-14T03:50:47;7.03;;;4.63;;
22713;SDS011;11524;50.846;4.326;2022-08-14T03:53:16;7.25;;;4.60;;
22713;SDS011;11524;50.846;4.326;2022-08-14T03:55:44;9.35;;;4.97;;
22713;SDS011;11524;50.846;4.326;2022-08-14T03:58:10;7.90;;;4.95;;
22713;SDS011;11524;50.846;4.326;2022-08-14T04:00:37;10.02;;;4.95;;
22713;SDS011;11524;50.846;4.326;2022-08-14T04:03:06;8.57;;;5.18;;
22713;SDS011;11524;50.846;4.326;2022-08-14T04:05:33;7.28;;;4.53;;
22713;SDS011;11524;50.846;4.326;2022-08-14T04:08:02;7.03;;;4.85;;
22713;SDS011;11524;50.846;4.326;2022-08-14T04:10:32;8.27;;;4.47;;
22713;SDS011;11524;50.846;4.326;2022-08-14T04:12:59;6.25;;;4.53;;
22713;SDS011;11524;50.846;4.326;2022-08-14T04:15:25;6.05;;;4.43;;
22713;SDS011;11524;50.846;4.326;2022-08-14T04:17:51;4.97;;;4.03;;
22713;SDS011;11524;50.846;4.326;2022-08-14T04:20:20;6.65;;;3.60;;
22713;SDS011;11524;50.846;4.326;2022-08-14T04:22:46;5.05;;;4.07;;
22713;SDS011;11524;50.846;4.326;2022-08-14T04:25:12;5.20;;;3.80;;
22713;SDS011;11524;50.846;4.326;2022-08-14T04:27:38;5.22;;;3.85;;
22713;SDS011;11524;50.846;4.326;2022-08-14T04:30:04;5.95;;;3.63;;
22713;SDS011;11524;50.846;4.326;2022-08-14T04:32:30;4.40;;;3.58;;
22713;SDS011;11524;50.846;4.326;2022-08-14T04:34:58;5.65;;;3.55;;
22713;SDS011;11524;50.846;4.326;2022-08-14T04:37:24;4.13;;;3.58;;
22713;SDS011;11524;50.846;4.326;2022-08-14T04:40:09;5.47;;;3.60;;
22713;SDS011;11524;50.846;4.326;2022-08-14T04:42:55;5.88;;;3.67;;
22713;SDS011;11524;50.846;4.326;2022-08-14T04:45:39;5.25;;;3.47;;
22713;SDS011;11524;50.846;4.326;2022-08-14T04:48:06;6.43;;;3.50;;
22713;SDS011;11524;50.846;4.326;2022-08-14T04:50:44;4.22;;;3.08;;
22713;SDS011;11524;50.846;4.326;2022-08-14T04:53:12;5.70;;;3.25;;
22713;SDS011;11524;50.846;4.326;2022-08-14T04:55:41;6.32;;;3.70;;
22713;SDS011;11524;50.846;4.326;2022-08-14T04:58:12;4.85;;;3.20;;
22713;SDS011;11524;50.846;4.326;2022-08-14T05:00:39;4.63;;;3.03;;
22713;SDS011;11524;50.846;4.326;2022-08-14T05:03:05;4.57;;;3.42;;
22713;SDS011;11524;50.846;4.326;2022-08-14T05:05:32;4.65;;;2.92;;
22713;SDS011;11524;50.846;4.326;2022-08-14T05:08:04;5.00;;;3.13;;
22713;SDS011;11524;50.846;4.326;2022-08-14T05:10:36;4.43;;;3.22;;
22713;SDS011;11524;50.846;4.326;2022-08-14T05:13:03;5.00;;;2.92;;
22713;SDS011;11524;50.846;4.326;2022-08-14T05:15:30;4.93;;;3.47;;
22713;SDS011;11524;50.846;4.326;2022-08-14T05:18:06;3.90;;;2.90;;
22713;SDS011;11524;50.846;4.326;2022-08-14T05:20:45;7.95;;;3.45;;
22713;SDS011;11524;50.846;4.326;2022-08-14T05:23:12;3.97;;;2.70;;
22713;SDS011;11524;50.846;4.326;2022-08-14T05:25:40;3.25;;;2.90;;
22713;SDS011;11524;50.846;4.326;2022-08-14T05:30:32;4.90;;;3.17;;
22713;SDS011;11524;50.846;4.326;2022-08-14T05:32:58;3.53;;;2.90;;
22713;SDS011;11524;50.846;4.326;2022-08-14T05:35:25;6.60;;;3.40;;
22713;SDS011;11524;50.846;4.326;2022-08-14T05:37:51;6.75;;;3.42;;
22713;SDS011;11524;50.846;4.326;2022-08-14T05:40:17;5.38;;;3.08;;
22713;SDS011;11524;50.846;4.326;2022-08-14T05:42:42;3.78;;;3.20;;
22713;SDS011;11524;50.846;4.326;2022-08-14T05:45:08;5.28;;;2.88;;
22713;SDS011;11524;50.846;4.326;2022-08-14T05:47:38;6.32;;;3.38;;
22713;SDS011;11524;50.846;4.326;2022-08-14T05:50:08;4.25;;;2.88;;
22713;SDS011;11524;50.846;4.326;2022-08-14T05:52:35;6.30;;;2.95;;
22713;SDS011;11524;50.846;4.326;2022-08-14T05:55:01;3.40;;;2.60;;
22713;SDS011;11524;50.846;4.326;2022-08-14T05:57:27;4.70;;;2.30;;
22713;SDS011;11524;50.846;4.326;2022-08-14T05:59:53;5.25;;;3.08;;
22713;SDS011;11524;50.846;4.326;2022-08-14T06:02:19;2.60;;;2.40;;
22713;SDS011;11524;50.846;4.326;2022-08-14T06:04:44;5.45;;;2.22;;
22713;SDS011;11524;50.846;4.326;2022-08-14T06:07:12;3.75;;;2.45;;
22713;SDS011;11524;50.846;4.326;2022-08-14T06:09:39;4.47;;;2.55;;
22713;SDS011;11524;50.846;4.326;2022-08-14T06:12:05;3.20;;;2.60;;
22713;SDS011;11524;50.846;4.326;2022-08-14T06:14:35;2.50;;;2.30;;
22713;SDS011;11524;50.846;4.326;2022-08-14T06:17:01;3.28;;;2.42;;
22713;SDS011;11524;50.846;4.326;2022-08-14T06:19:27;2.90;;;2.55;;
22713;SDS011;11524;50.846;4.326;2022-08-14T06:21:53;3.17;;;2.72;;
22713;SDS011;11524;50.846;4.326;2022-08-14T06:24:18;4.85;;;2.60;;
22713;SDS011;11524;50.846;4.326;2022-08-14T06:26:45;6.22;;;2.83;;
22713;SDS011;11524;50.846;4.326;2022-08-14T06:29:11;5.63;;;3.13;;
22713;SDS011;11524;50.846;4.326;2022-08-14T06:31:37;4.47;;;2.55;;
22713;SDS011;11524;50.846;4.326;2022-08-14T06:34:02;7.45;;;2.47;;
22713;SDS011;11524;50.846;4.326;2022-08-14T06:36:28;3.60;;;2.75;;
22713;SDS011;11524;50.846;4.326;2022-08-14T06:38:54;4.68;;;2.70;;
22713;SDS011;11524;50.846;4.326;2022-08-14T06:41:20;3.33;;;2.40;;
22713;SDS011;11524;50.846;4.326;2022-08-14T06:43:47;3.10;;;2.80;;
22713;SDS011;11524;50.846;4.326;2022-08-14T06:46:13;5.35;;;2.70;;
22713;SDS011;11524;50.846;4.326;2022-08-14T06:48:38;4.43;;;2.97;;
22713;SDS011;11524;50.846;4.326;2022-08-14T06:51:04;4.53;;;3.00;;
22713;SDS011;11524;50.846;4.326;2022-08-14T06:53:29;4.80;;;2.95;;
22713;SDS011;11524;50.846;4.326;2022-08-14T06:55:55;6.18;;;3.20;;
22713;SDS011;11524;50.846;4.326;2022-08-14T06:58:21;4.13;;;3.30;;
22713;SDS011;11524;50.846;4.326;2022-08-14T07:00:47;5.45;;;4.20;;
22713;SDS011;11524;50.846;4.326;2022-08-14T07:03:32;7.53;;;3.72;;
22713;SDS011;11524;50.846;4.326;2022-08-14T07:06:16;4.90;;;3.55;;
22713;SDS011;11524;50.846;4.326;2022-08-14T07:08:42;4.82;;;4.15;;
22713;SDS011;11524;50.846;4.326;2022-08-14T07:11:09;5.88;;;4.22;;
22713;SDS011;11524;50.846;4.326;2022-08-14T07:13:35;4.20;;;3.88;;
22713;SDS011;11524;50.846;4.326;2022-08-14T07:16:01;4.20;;;3.78;;
22713;SDS011;11524;50.846;4.326;2022-08-14T07:18:28;4.88;;;4.28;;
22713;SDS011;11524;50.846;4.326;2022-08-14T07:20:55;4.75;;;3.83;;
22713;SDS011;11524;50.846;4.326;2022-08-14T07:23:22;5.82;;;4.20;;
22713;SDS011;11524;50.846;4.326;2022-08-14T07:25:50;4.47;;;4.07;;
22713;SDS011;11524;50.846;4.326;2022-08-14T07:28:19;4.90;;;3.95;;
22713;SDS011;11524;50.846;4.326;2022-08-14T07:30:49;6.78;;;4.05;;
22713;SDS011;11524;50.846;4.326;2022-08-14T07:33:22;4.32;;;3.92;;
22713;SDS011;11524;50.846;4.326;2022-08-14T07:35:49;4.18;;;3.83;;
22713;SDS011;11524;50.846;4.326;2022-08-14T07:38:16;5.97;;;4.22;;
22713;SDS011;11524;50.846;4.326;2022-08-14T07:40:44;4.43;;;4.00;;
22713;SDS011;11524;50.846;4.326;2022-08-14T07:43:10;5.40;;;3.28;;
22713;SDS011;11524;50.846;4.326;2022-08-14T07:45:37;4.18;;;3.88;;
22713;SDS011;11524;50.846;4.326;2022-08-14T07:48:04;7.72;;;3.55;;
22713;SDS011;11524;50.846;4.326;2022-08-14T07:50:30;6.35;;;3.67;;
22713;SDS011;11524;50.846;4.326;2022-08-14T07:52:56;8.57;;;4.05;;
22713;SDS011;11524;50.846;4.326;2022-08-14T07:55:23;6.85;;;4.07;;
22713;SDS011;11524;50.846;4.326;2022-08-14T07:57:49;9.60;;;3.75;;
22713;SDS011;11524;50.846;4.326;2022-08-14T08:00:16;5.13;;;3.40;;
22713;SDS011;11524;50.846;4.326;2022-08-14T08:02:46;7.20;;;3.42;;
22713;SDS011;11524;50.846;4.326;2022-08-14T08:05:18;5.38;;;3.85;;
22713;SDS011;11524;50.846;4.326;2022-08-14T08:07:45;5.35;;;3.38;;
22713;SDS011;11524;50.846;4.326;2022-08-14T08:10:15;5.63;;;3.55;;
22713;SDS011;11524;50.846;4.326;2022-08-14T08:13:14;4.53;;;3.13;;
22713;SDS011;11524;50.846;4.326;2022-08-14T08:15:43;4.35;;;3.30;;
22713;SDS011;11524;50.846;4.326;2022-08-14T08:18:11;8.07;;;3.60;;
22713;SDS011;11524;50.846;4.326;2022-08-14T08:20:41;5.78;;;3.80;;
22713;SDS011;11524;50.846;4.326;2022-08-14T08:23:10;5.68;;;3.50;;
22713;SDS011;11524;50.846;4.326;2022-08-14T08:25:38;3.92;;;3.63;;
22713;SDS011;11524;50.846;4.326;2022-08-14T08:28:10;13.38;;;3.55;;
22713;SDS011;11524;50.846;4.326;2022-08-14T08:30:39;12.60;;;3.30;;
22713;SDS011;11524;50.846;4.326;2022-08-14T08:33:07;7.07;;;3.55;;
22713;SDS011;11524;50.846;4.326;2022-08-14T08:35:35;4.68;;;3.17;;
22713;SDS011;11524;50.846;4.326;2022-08-14T08:38:07;8.18;;;3.40;;
22713;SDS011;11524;50.846;4.326;2022-08-14T08:43:05;7.22;;;3.53;;
22713;SDS011;11524;50.846;4.326;2022-08-14T08:45:33;6.60;;;3.25;;
22713;SDS011;11524;50.846;4.326;2022-08-14T08:48:00;7.00;;;2.97;;
22713;SDS011;11524;50.846;4.326;2022-08-14T08:50:32;7.97;;;3.38;;
22713;SDS011;11524;50.846;4.326;2022-08-14T08:53:01;4.65;;;3.33;;
22713;SDS011;11524;50.846;4.326;2022-08-14T08:55:30;6.50;;;3.08;;
22713;SDS011;11524;50.846;4.326;2022-08-14T08:58:06;4.28;;;3.40;;
22713;SDS011;11524;50.846;4.326;2022-08-14T09:00:40;3.75;;;3.10;;
22713;SDS011;11524;50.846;4.326;2022-08-14T09:05:35;3.60;;;2.90;;
22713;SDS011;11524;50.846;4.326;2022-08-14T09:08:12;5.72;;;2.85;;
22713;SDS011;11524;50.846;4.326;2022-08-14T09:10:46;7.10;;;2.78;;
22713;SDS011;11524;50.846;4.326;2022-08-14T09:13:12;3.92;;;2.50;;
22713;SDS011;11524;50.846;4.326;2022-08-14T09:15:40;3.40;;;2.70;;
22713;SDS011;11524;50.846;4.326;2022-08-14T09:18:07;4.43;;;2.75;;
22713;SDS011;11524;50.846;4.326;2022-08-14T09:20:34;4.00;;;2.60;;
22713;SDS011;11524;50.846;4.326;2022-08-14T09:23:03;6.03;;;3.00;;
22713;SDS011;11524;50.846;4.326;2022-08-14T09:25:30;3.50;;;3.15;;
22713;SDS011;11524;50.846;4.326;2022-08-14T09:27:56;3.42;;;3.10;;
22713;SDS011;11524;50.846;4.326;2022-08-14T09:30:22;3.13;;;2.72;;
22713;SDS011;11524;50.846;4.326;2022-08-14T09:44:09;2.90;;;2.58;;
22713;SDS011;11524;50.846;4.326;2022-08-14T09:46:53;3.80;;;2.92;;
22713;SDS011;11524;50.846;4.326;2022-08-14T09:49:29;4.68;;;2.65;;
22713;SDS011;11524;50.846;4.326;2022-08-14T09:52:10;5.80;;;2.90;;
22713;SDS011;11524;50.846;4.326;2022-08-14T09:54:41;3.67;;;2.88;;
22713;SDS011;11524;50.846;4.326;2022-08-14T09:57:09;5.05;;;2.70;;
22713;SDS011;11524;50.846;4.326;2022-08-14T09:59:41;2.80;;;2.47;;
22713;SDS011;11524;50.846;4.326;2022-08-14T10:05:03;3.33;;;2.50;;
22713;SDS011;11524;50.846;4.326;2022-08-14T10:09:58;5.07;;;2.70;;
22713;SDS011;11524;50.846;4.326;2022-08-14T10:12:25;5.55;;;2.83;;
22713;SDS011;11524;50.846;4.326;2022-08-14T10:14:54;3.03;;;2.50;;
22713;SDS011;11524;50.846;4.326;2022-08-14T10:17:20;7.95;;;2.88;;
22713;SDS011;11524;50.846;4.326;2022-08-14T10:19:51;7.32;;;2.90;;
22713;SDS011;11524;50.846;4.326;2022-08-14T10:22:22;4.40;;;2.65;;
22713;SDS011;11524;50.846;4.326;2022-08-14T10:24:54;3.22;;;2.60;;
22713;SDS011;11524;50.846;4.326;2022-08-14T10:27:21;4.45;;;2.58;;
22713;SDS011;11524;50.846;4.326;2022-08-14T10:29:49;3.72;;;2.55;;
22713;SDS011;11524;50.846;4.326;2022-08-14T10:32:20;5.72;;;2.45;;
22713;SDS011;11524;50.846;4.326;2022-08-14T10:34:47;3.80;;;2.35;;
22713;SDS011;11524;50.846;4.326;2022-08-14T10:37:13;4.93;;;2.53;;
22713;SDS011;11524;50.846;4.326;2022-08-14T10:39:42;3.78;;;2.72;;
22713;SDS011;11524;50.846;4.326;2022-08-14T10:42:10;4.35;;;2.70;;
22713;SDS011;11524;50.846;4.326;2022-08-14T10:44:39;2.95;;;2.47;;
22713;SDS011;11524;50.846;4.326;2022-08-14T10:47:13;2.75;;;2.50;;
22713;SDS011;11524;50.846;4.326;2022-08-14T10:49:43;4.65;;;2.78;;
22713;SDS011;11524;50.846;4.326;2022-08-14T10:52:25;3.55;;;2.45;;
22713;SDS011;11524;50.846;4.326;2022-08-14T10:57:50;3.03;;;2.40;;
22713;SDS011;11524;50.846;4.326;2022-08-14T11:00:18;3.00;;;2.80;;
22713;SDS011;11524;50.846;4.326;2022-08-14T11:02:55;2.55;;;2.35;;
22713;SDS011;11524;50.846;4.326;2022-08-14T11:05:36;3.33;;;2.40;;
22713;SDS011;11524;50.846;4.326;2022-08-14T11:08:07;2.90;;;2.50;;
22713;SDS011;11524;50.846;4.326;2022-08-14T11:10:38;3.00;;;2.78;;
22713;SDS011;11524;50.846;4.326;2022-08-14T11:13:08;4.30;;;2.45;;
22713;SDS011;11524;50.846;4.326;2022-08-14T11:15:34;4.38;;;2.40;;
22713;SDS011;11524;50.846;4.326;2022-08-14T11:18:00;3.08;;;2.50;;
22713;SDS011;11524;50.846;4.326;2022-08-14T11:20:27;2.80;;;2.50;;
22713;SDS011;11524;50.846;4.326;2022-08-14T11:22:56;3.53;;;2.40;;
22713;SDS011;11524;50.846;4.326;2022-08-14T11:25:25;2.60;;;2.35;;
22713;SDS011;11524;50.846;4.326;2022-08-14T11:27:54;2.80;;;2.50;;
22713;SDS011;11524;50.846;4.326;2022-08-14T11:30:22;2.70;;;2.50;;
22713;SDS011;11524;50.846;4.326;2022-08-14T11:32:50;2.60;;;2.40;;
22713;SDS011;11524;50.846;4.326;2022-08-14T11:35:27;3.20;;;1.90;;
22713;SDS011;11524;50.846;4.326;2022-08-14T11:40:23;2.38;;;2.17;;
22713;SDS011;11524;50.846;4.326;2022-08-14T11:42:50;2.13;;;1.95;;
22713;SDS011;11524;50.846;4.326;2022-08-14T11:45:21;3.20;;;2.42;;
22713;SDS011;11524;50.846;4.326;2022-08-14T11:47:48;2.45;;;2.25;;
22713;SDS011;11524;50.846;4.326;2022-08-14T11:50:19;3.38;;;2.15;;
22713;SDS011;11524;50.846;4.326;2022-08-14T11:52:47;2.85;;;2.50;;
22713;SDS011;11524;50.846;4.326;2022-08-14T11:55:14;2.85;;;2.40;;
22713;SDS011;11524;50.846;4.326;2022-08-14T11:57:43;3.22;;;2.33;;
22713;SDS011;11524;50.846;4.326;2022-08-14T12:00:18;2.53;;;2.15;;
22713;SDS011;11524;50.846;4.326;2022-08-14T12:02:49;3.70;;;2.45;;
22713;SDS011;11524;50.846;4.326;2022-08-14T12:05:26;3.40;;;2.22;;
22713;SDS011;11524;50.846;4.326;2022-08-14T12:08:00;2.35;;;2.15;;
22713;SDS011;11524;50.846;4.326;2022-08-14T12:10:31;2.60;;;2.13;;
22713;SDS011;11524;50.846;4.326;2022-08-14T12:12:58;2.95;;;2.10;;
22713;SDS011;11524;50.846;4.326;2022-08-14T12:15:46;2.60;;;2.35;;
22713;SDS011;11524;50.846;4.326;2022-08-14T12:21:21;3.05;;;2.13;;
22713;SDS011;11524;50.846;4.326;2022-08-14T12:26:54;2.40;;;2.20;;
22713;SDS011;11524;50.846;4.326;2022-08-14T12:29:20;2.20;;;2.00;;
22713;SDS011;11524;50.846;4.326;2022-08-14T12:31:46;2.55;;;2.35;;
22713;SDS011;11524;50.846;4.326;2022-08-14T12:34:28;2.22;;;2.03;;
22713;SDS011;11524;50.846;4.326;2022-08-14T12:37:05;3.95;;;2.38;;
22713;SDS011;11524;50.846;4.326;2022-08-14T12:39:33;2.97;;;2.20;;
22713;SDS011;11524;50.846;4.326;2022-08-14T12:41:59;2.60;;;2.40;;
22713;SDS011;11524;50.846;4.326;2022-08-14T12:44:33;2.55;;;2.10;;
22713;SDS011;11524;50.846;4.326;2022-08-14T12:47:25;2.55;;;2.33;;
22713;SDS011;11524;50.846;4.326;2022-08-14T12:49:51;2.50;;;2.30;;
22713;SDS011;11524;50.846;4.326;2022-08-14T12:55:00;4.65;;;2.28;;
22713;SDS011;11524;50.846;4.326;2022-08-14T13:02:43;3.60;;;2.10;;
22713;SDS011;11524;50.846;4.326;2022-08-14T13:05:11;2.45;;;2.25;;
22713;SDS011;11524;50.846;4.326;2022-08-14T13:07:39;4.05;;;2.05;;
22713;SDS011;11524;50.846;4.326;2022-08-14T13:10:08;2.67;;;2.20;;
22713;SDS011;11524;50.846;4.326;2022-08-14T13:12:37;2.50;;;2.30;;
22713;SDS011;11524;50.846;4.326;2022-08-14T13:15:05;2.20;;;2.00;;
22713;SDS011;11524;50.846;4.326;2022-08-14T13:17:35;2.17;;;1.98;;
22713;SDS011;11524;50.846;4.326;2022-08-14T13:20:12;3.88;;;2.00;;
22713;SDS011;11524;50.846;4.326;2022-08-14T13:22:39;2.22;;;1.90;;
22713;SDS011;11524;50.846;4.326;2022-08-14T13:25:07;2.60;;;2.28;;
22713;SDS011;11524;50.846;4.326;2022-08-14T13:27:34;2.40;;;2.20;;
22713;SDS011;11524;50.846;4.326;2022-08-14T13:30:00;2.17;;;2.00;;
22713;SDS011;11524;50.846;4.326;2022-08-14T13:32:29;2.85;;;2.08;;
22713;SDS011;11524;50.846;4.326;2022-08-14T13:34:57;2.50;;;2.00;;
22713;SDS011;11524;50.846;4.326;2022-08-14T13:37:24;3.67;;;2.00;;
22713;SDS011;11524;50.846;4.326;2022-08-14T13:39:51;2.00;;;1.80;;
22713;SDS011;11524;50.846;4.326;2022-08-14T13:42:19;1.95;;;1.85;;
22713;SDS011;11524;50.846;4.326;2022-08-14T13:44:49;2.97;;;2.20;;
22713;SDS011;11524;50.846;4.326;2022-08-14T13:47:17;3.38;;;1.88;;
22713;SDS011;11524;50.846;4.326;2022-08-14T13:49:48;4.85;;;2.00;;
22713;SDS011;11524;50.846;4.326;2022-08-14T13:52:16;2.15;;;1.92;;
22713;SDS011;11524;50.846;4.326;2022-08-14T13:54:47;2.78;;;2.10;;
22713;SDS011;11524;50.846;4.326;2022-08-14T13:57:15;3.72;;;2.03;;
22713;SDS011;11524;50.846;4.326;2022-08-14T13:59:43;2.28;;;1.88;;
22713;SDS011;11524;50.846;4.326;2022-08-14T14:02:13;2.88;;;1.80;;
22713;SDS011;11524;50.846;4.326;2022-08-14T14:04:46;3.60;;;2.25;;
22713;SDS011;11524;50.846;4.326;2022-08-14T14:07:17;2.30;;;2.10;;
22713;SDS011;11524;50.846;4.326;2022-08-14T14:09:46;2.30;;;2.10;;
22713;SDS011;11524;50.846;4.326;2022-08-14T14:12:13;2.40;;;1.80;;
22713;SDS011;11524;50.846;4.326;2022-08-14T14:14:40;2.28;;;2.08;;
22713;SDS011;11524;50.846;4.326;2022-08-14T14:17:07;2.28;;;2.08;;
22713;SDS011;11524;50.846;4.326;2022-08-14T14:19:37;3.47;;;2.03;;
22713;SDS011;11524;50.846;4.326;2022-08-14T14:22:11;2.00;;;1.80;;
22713;SDS011;11524;50.846;4.326;2022-08-14T14:24:40;2.00;;;1.80;;
22713;SDS011;11524;50.846;4.326;2022-08-14T14:27:06;2.35;;;1.83;;
22713;SDS011;11524;50.846;4.326;2022-08-14T14:29:33;2.55;;;2.22;;
22713;SDS011;11524;50.846;4.326;2022-08-14T14:32:00;2.13;;;1.92;;
22713;SDS011;11524;50.846;4.326;2022-08-14T14:34:27;1.85;;;1.75;;
22713;SDS011;11524;50.846;4.326;2022-08-14T14:36:55;2.38;;;1.90;;
22713;SDS011;11524;50.846;4.326;2022-08-14T14:39:26;2.13;;;1.80;;
22713;SDS011;11524;50.846;4.326;2022-08-14T14:41:53;1.90;;;1.70;;
22713;SDS011;11524;50.846;4.326;2022-08-14T14:44:22;2.17;;;1.95;;
22713;SDS011;11524;50.846;4.326;2022-08-14T14:46:54;1.93;;;1.80;;
22713;SDS011;11524;50.846;4.326;2022-08-14T14:49:22;2.78;;;2.00;;
22713;SDS011;11524;50.846;4.326;2022-08-14T14:51:49;3.38;;;1.90;;
22713;SDS011;11524;50.846;4.326;2022-08-14T14:54:15;2.10;;;1.70;;
22713;SDS011;11524;50.846;4.326;2022-08-14T14:56:47;2.65;;;1.85;;
22713;SDS011;11524;50.846;4.326;2022-08-14T14:59:12;2.95;;;1.67;;
22713;SDS011;11524;50.846;4.326;2022-08-14T15:01:39;1.90;;;1.80;;
22713;SDS011;11524;50.846;4.326;2022-08-14T15:04:08;2.40;;;1.77;;
22713;SDS011;11524;50.846;4.326;2022-08-14T15:06:33;2.10;;;2.00;;
22713;SDS011;11524;50.846;4.326;2022-08-14T15:08:59;1.70;;;1.60;;
22713;SDS011;11524;50.846;4.326;2022-08-14T15:11:26;2.30;;;1.90;;
22713;SDS011;11524;50.846;4.326;2022-08-14T15:13:52;2.10;;;1.92;;
22713;SDS011;11524;50.846;4.326;2022-08-14T15:16:18;1.90;;;1.80;;
22713;SDS011;11524;50.846;4.326;2022-08-14T15:18:44;1.80;;;1.70;;
22713;SDS011;11524;50.846;4.326;2022-08-14T15:21:11;2.22;;;1.95;;
22713;SDS011;11524;50.846;4.326;2022-08-14T15:23:37;2.00;;;1.80;;
22713;SDS011;11524;50.846;4.326;2022-08-14T15:26:04;2.20;;;2.00;;
22713;SDS011;11524;50.846;4.326;2022-08-14T15:28:30;2.97;;;2.10;;
22713;SDS011;11524;50.846;4.326;2022-08-14T15:31:00;2.35;;;2.15;;
22713;SDS011;11524;50.846;4.326;2022-08-14T15:33:29;1.85;;;1.75;;
22713;SDS011;11524;50.846;4.326;2022-08-14T15:36:14;2.20;;;1.90;;
22713;SDS011;11524;50.846;4.326;2022-08-14T15:38:41;2.25;;;1.77;;
22713;SDS011;11524;50.846;4.326;2022-08-14T15:41:06;1.73;;;1.63;;
22713;SDS011;11524;50.846;4.326;2022-08-14T15:43:32;4.85;;;2.03;;